Overview Statistics Trail Chart Weather Telemetry Raw packets
 

This is the latest recevied weather packets stored in our database for station/object N1YZ. If no packets are shown the sender has not sent any weather packets the latest 10 day(s).

<< 52 53 54 55 56 57 58 >>
Time Temp. Humidity Pressure Rain* Wind** Luminosity Snow
1788305445 32.78° C 57% 1036.5 hPa 0 mm - 14 W/m² -
1788305140 32.78° C 57% 1036.6 hPa 0 mm - 15 W/m² -
1788304835 32.78° C 57% 1036.7 hPa 0 mm - 16 W/m² -
1788304531 32.78° C 57% 1036.4 hPa 0 mm - 18 W/m² -
1788304227 32.78° C 57% 1036.5 hPa 0 mm - 19 W/m² -
1788303922 32.78° C 57% 1036.4 hPa 0 mm - 21 W/m² -
1788303617 32.78° C 56% 1036.3 hPa 0 mm - 22 W/m² -
1788303312 32.78° C 56% 1036.5 hPa 0 mm - 24 W/m² -
1788303011 32.78° C 56% 1036.6 hPa 0 mm - 24 W/m² -
1788302017 33.33° C 55% 1036.3 hPa 0 mm - 28 W/m² -
1788301712 33.33° C 55% 1036.3 hPa 0 mm - 28 W/m² -
1788301409 33.33° C 56% 1036.3 hPa 0 mm - 30 W/m² -
1788301104 33.33° C 56% 1036.2 hPa 0 mm - 33 W/m² -
1788300800 33.33° C 56% 1036.3 hPa 0 mm - 34 W/m² -
1788300499 33.33° C 55% 1036.2 hPa 0 mm - 38 W/m² -
1788300198 33.33° C 55% 1036.4 hPa 0 mm - 42 W/m² -
1788299897 32.78° C 57% 1036.2 hPa 0 mm - 44 W/m² -
1788299592 33.33° C 57% 1036.3 hPa 0 mm - 47 W/m² -
1788299290 32.78° C 55% 1036.2 hPa 0 mm - 49 W/m² -
1788298990 33.33° C 55% 1036.6 hPa 0 mm - 59 W/m² -
1788298685 33.33° C 55% 1036.2 hPa 0 mm - 68 W/m² -
1788298384 32.78° C 57% 1036.4 hPa 0 mm - 186 W/m² -
1788298079 33.33° C 54% 1036.4 hPa 0 mm - 54 W/m² -
1788297774 33.33° C 56% 1036.4 hPa 0 mm - 58 W/m² -
1788297469 33.33° C 54% 1036.4 hPa 0 mm - 58 W/m² -

* Rain latest hour (hover to see other rain measurements)
** Current wind speed in m/s (hover to see current wind gust speed)